Russell, Pennsylvania
Current Conditions -  °F | °C
As of 8:15 PM on Saturday 22 Nov 2014 (Local Time) from KJHW Reporting Station
Overcast Overcast  
Wind Chill: 29°   Ceiling: 2400
Heat Index: 37°   Visibility: 9mi
Dew Point: 34°   Wind: 14mph
Humidity: 87%   Direction: 200°SSW
Pressure: 30.04"   Gusts: NA
Location:  41.94°N, 79.13°W
Report Text: KJHW 230115Z AUTO 20012KT 9SM BKN024 OVC085 03/01 A3004 RMK AO1
Loading
Personal Weather Stations






























Interactive Weather Map New forecast layout! Learn more

10-Day Weather Forecast

Advertisements
Track Severe Weather on mobile